createdAt,value
2023-02-15T00:01:26.573Z,13.70
2023-02-15T00:03:54.852Z,14.32
2023-02-15T00:06:23.173Z,14.45
2023-02-15T00:08:51.478Z,13.25
2023-02-15T00:11:40.377Z,13.52
2023-02-15T00:14:11.361Z,13.68
2023-02-15T00:16:40.178Z,11.90
2023-02-15T00:19:08.525Z,13.38
2023-02-15T00:21:37.663Z,13.25
2023-02-15T00:24:06.938Z,14.25
2023-02-15T00:26:35.505Z,13.75
2023-02-15T00:29:04.205Z,14.48
2023-02-15T00:31:34.790Z,12.75
2023-02-15T00:34:04.993Z,15.00
2023-02-15T00:36:33.303Z,13.80
2023-02-15T00:39:01.836Z,15.02
2023-02-15T00:41:30.206Z,14.15
2023-02-15T00:43:59.696Z,13.93
2023-02-15T00:46:27.961Z,15.23
2023-02-15T00:48:57.619Z,14.90
2023-02-15T00:51:26.112Z,14.50
2023-02-15T00:53:54.960Z,15.70
2023-02-15T00:56:23.611Z,15.27
2023-02-15T00:58:51.922Z,14.75
2023-02-15T01:01:21.524Z,15.30
2023-02-15T01:03:50.198Z,15.95
2023-02-15T01:06:20.405Z,15.10
2023-02-15T01:08:49.689Z,15.23
2023-02-15T01:11:22.714Z,16.75
2023-02-15T01:13:53.198Z,15.68
2023-02-15T01:16:21.777Z,17.63
2023-02-15T01:18:50.175Z,16.35
2023-02-15T01:21:21.297Z,16.58
2023-02-15T01:23:49.968Z,15.68
2023-02-15T01:26:18.879Z,15.07
2023-02-15T01:28:47.782Z,15.80
2023-02-15T01:31:17.089Z,15.77
2023-02-15T01:33:47.512Z,15.90
2023-02-15T01:36:19.798Z,16.35
2023-02-15T01:38:48.590Z,17.27
2023-02-15T01:41:23.950Z,15.10
2023-02-15T01:43:53.776Z,16.10
2023-02-15T01:46:24.744Z,14.50
2023-02-15T01:48:55.228Z,12.93
2023-02-15T01:51:30.259Z,15.25
2023-02-15T01:54:01.787Z,16.20
2023-02-15T01:56:31.377Z,15.02
2023-02-15T01:59:02.580Z,14.93
2023-02-15T02:01:31.063Z,15.25
2023-02-15T02:04:02.988Z,14.82
2023-02-15T02:06:34.438Z,15.52
2023-02-15T02:09:03.337Z,13.75
2023-02-15T02:11:32.730Z,15.27
2023-02-15T02:14:01.167Z,14.77
2023-02-15T02:16:33.295Z,15.57
2023-02-15T02:19:12.915Z,15.05
2023-02-15T02:21:53.150Z,14.63
2023-02-15T02:24:29.887Z,16.00
2023-02-15T02:27:13.872Z,16.33
2023-02-15T02:30:00.664Z,14.48
2023-02-15T02:32:37.891Z,14.73
2023-02-15T02:35:11.338Z,15.70
2023-02-15T02:37:43.453Z,15.18
2023-02-15T02:40:15.724Z,15.43
2023-02-15T02:42:44.433Z,15.60
2023-02-15T02:45:15.255Z,14.80
2023-02-15T02:47:46.570Z,14.90
2023-02-15T02:50:17.627Z,15.68
2023-02-15T02:52:46.764Z,14.50
2023-02-15T02:55:18.291Z,15.18
2023-02-15T02:57:50.859Z,15.00
2023-02-15T03:00:20.117Z,16.42
2023-02-15T03:02:50.264Z,15.15
2023-02-15T03:05:22.251Z,15.05
2023-02-15T03:07:52.496Z,15.40
2023-02-15T03:10:23.468Z,15.93
2023-02-15T03:12:53.109Z,17.02
2023-02-15T03:15:22.706Z,15.48
2023-02-15T03:17:52.842Z,15.18
2023-02-15T03:20:26.246Z,16.70
2023-02-15T03:22:57.161Z,16.92
2023-02-15T03:25:27.963Z,16.92
2023-02-15T03:27:57.474Z,17.02
2023-02-15T03:30:26.511Z,16.15
2023-02-15T03:32:57.813Z,16.92
2023-02-15T03:35:29.116Z,16.33
2023-02-15T03:38:00.354Z,16.45
2023-02-15T03:40:48.484Z,15.95
2023-02-15T03:43:19.642Z,16.45
2023-02-15T03:45:55.498Z,16.20
2023-02-15T03:48:25.751Z,16.45
2023-02-15T03:51:14.928Z,16.05
2023-02-15T03:53:44.854Z,18.48
2023-02-15T03:56:13.174Z,18.77
2023-02-15T03:58:59.135Z,18.00
2023-02-15T04:01:46.528Z,17.75
2023-02-15T04:04:18.044Z,17.58
2023-02-15T04:06:47.841Z,16.30
2023-02-15T04:09:34.162Z,17.10
2023-02-15T04:12:02.423Z,18.25
2023-02-15T04:14:48.232Z,17.00
2023-02-15T04:17:16.506Z,15.95
2023-02-15T04:20:02.709Z,14.85
2023-02-15T04:22:50.011Z,15.30
2023-02-15T04:25:18.461Z,16.05
2023-02-15T04:27:47.647Z,16.73
2023-02-15T04:30:16.959Z,16.13
2023-02-15T04:32:45.335Z,16.20
2023-02-15T04:35:13.785Z,18.13
2023-02-15T04:37:43.687Z,16.85
2023-02-15T04:40:13.270Z,15.32
2023-02-15T04:42:41.758Z,15.98
2023-02-15T04:45:10.151Z,16.92
2023-02-15T04:47:38.499Z,17.25
2023-02-15T04:50:07.407Z,17.35
2023-02-15T04:52:35.745Z,18.90
2023-02-15T04:55:05.907Z,16.23
2023-02-15T04:57:34.312Z,16.90
2023-02-15T05:00:02.732Z,16.90
2023-02-15T05:02:31.038Z,17.02
2023-02-15T05:04:59.312Z,17.92
2023-02-15T05:07:27.619Z,16.50
2023-02-15T05:09:55.904Z,18.30
2023-02-15T05:12:25.546Z,17.15
2023-02-15T05:14:54.137Z,17.95
2023-02-15T05:17:22.397Z,18.27
2023-02-15T05:19:50.701Z,17.27
2023-02-15T05:22:18.987Z,17.27
2023-02-15T05:25:04.872Z,18.33
2023-02-15T05:27:52.106Z,16.40
2023-02-15T05:30:20.665Z,16.33
2023-02-15T05:32:49.105Z,16.60
2023-02-15T05:35:18.068Z,17.05
2023-02-15T05:37:46.872Z,16.30
2023-02-15T05:40:15.146Z,16.48
2023-02-15T05:42:44.774Z,16.23
2023-02-15T05:45:13.109Z,17.38
2023-02-15T05:47:41.355Z,17.88
2023-02-15T05:50:10.177Z,17.33
2023-02-15T05:52:38.424Z,16.45
2023-02-15T05:55:07.308Z,16.38
2023-02-15T05:57:35.538Z,15.57
2023-02-15T06:00:05.823Z,15.05
2023-02-15T06:02:40.474Z,15.60
2023-02-15T06:05:09.126Z,16.90
2023-02-15T06:07:37.566Z,15.77
2023-02-15T06:10:06.456Z,15.23
2023-02-15T06:12:34.726Z,15.77
2023-02-15T06:15:04.589Z,15.48
2023-02-15T06:17:33.096Z,15.32
2023-02-15T06:20:01.401Z,15.63
2023-02-15T06:22:29.736Z,17.25
2023-02-15T06:24:57.992Z,17.20
2023-02-15T06:27:26.577Z,15.82
2023-02-15T06:29:54.916Z,15.55
2023-02-15T06:32:24.594Z,15.90
2023-02-15T06:34:53.386Z,14.60
2023-02-15T06:37:22.449Z,16.42
2023-02-15T06:39:51.107Z,15.25
2023-02-15T06:42:19.821Z,15.07
2023-02-15T06:44:48.287Z,15.73
2023-02-15T06:47:16.541Z,16.08
2023-02-15T06:49:46.269Z,16.27
2023-02-15T06:52:14.899Z,16.55
2023-02-15T06:54:43.242Z,16.52
2023-02-15T06:57:11.536Z,15.35
2023-02-15T06:59:39.816Z,16.08
2023-02-15T07:02:08.772Z,15.57
2023-02-15T07:04:37.138Z,15.02
2023-02-15T07:07:06.907Z,13.75
2023-02-15T07:09:35.213Z,15.05
2023-02-15T07:12:21.248Z,15.10
2023-02-15T07:14:49.561Z,16.00
2023-02-15T07:17:35.144Z,15.20
2023-02-15T07:20:04.468Z,15.27
2023-02-15T07:22:34.873Z,15.30
2023-02-15T07:25:03.241Z,14.52
2023-02-15T07:27:37.711Z,15.18
2023-02-15T07:30:10.364Z,14.73
2023-02-15T07:32:59.210Z,15.90
2023-02-15T07:35:27.600Z,14.32
2023-02-15T07:37:57.861Z,13.48
2023-02-15T07:40:26.139Z,13.88
2023-02-15T07:42:55.545Z,14.07
2023-02-15T07:45:24.275Z,13.68
2023-02-15T07:47:52.571Z,14.18
2023-02-15T07:50:20.948Z,13.90
2023-02-15T07:52:49.252Z,13.18
2023-02-15T07:55:19.487Z,12.98
2023-02-15T07:57:49.917Z,12.50
2023-02-15T08:00:21.810Z,12.85
2023-02-15T08:03:11.652Z,13.00
2023-02-15T08:05:43.919Z,12.85
2023-02-15T08:08:31.226Z,12.73
2023-02-15T08:11:20.339Z,11.45
2023-02-15T08:13:54.521Z,10.05
2023-02-15T08:16:24.597Z,12.38
2023-02-15T08:18:53.016Z,10.80
2023-02-15T08:21:24.427Z,11.13
2023-02-15T08:23:53.539Z,11.52
2023-02-15T08:26:23.175Z,11.93
2023-02-15T08:28:51.602Z,11.25
2023-02-15T08:31:20.316Z,10.20
2023-02-15T08:33:49.610Z,9.88
2023-02-15T08:36:19.337Z,10.38
2023-02-15T08:38:47.974Z,9.50
2023-02-15T08:41:17.358Z,10.27
2023-02-15T08:43:47.638Z,9.65
2023-02-15T08:46:17.172Z,10.43
2023-02-15T08:48:45.936Z,9.25
2023-02-15T08:51:15.188Z,8.88
2023-02-15T08:53:44.836Z,8.82
2023-02-15T08:56:13.601Z,9.88
2023-02-15T08:58:41.908Z,8.45
2023-02-15T09:01:18.662Z,8.48
2023-02-15T09:03:47.685Z,10.18
2023-02-15T09:06:16.103Z,9.60
2023-02-15T09:08:44.511Z,9.18
2023-02-15T09:11:13.658Z,8.77
2023-02-15T09:13:42.500Z,9.32
2023-02-15T09:16:11.763Z,9.00
2023-02-15T09:18:41.793Z,9.25
2023-02-15T09:21:11.394Z,10.60
2023-02-15T09:23:39.666Z,9.55
2023-02-15T09:26:09.458Z,11.23
2023-02-15T09:28:37.974Z,15.60
2023-02-15T09:31:10.467Z,11.43
2023-02-15T09:33:39.632Z,16.90
2023-02-15T09:36:17.676Z,11.00
2023-02-15T09:38:46.682Z,13.00
2023-02-15T09:41:26.159Z,9.38
2023-02-15T09:44:02.593Z,9.40
2023-02-15T09:46:37.494Z,9.45
2023-02-15T09:49:07.485Z,8.98
2023-02-15T09:51:45.809Z,8.55
2023-02-15T09:54:32.091Z,8.43
2023-02-15T09:57:02.879Z,7.97
2023-02-15T09:59:36.292Z,8.52
2023-02-15T10:02:15.174Z,8.98
2023-02-15T10:04:50.262Z,8.70
2023-02-15T10:07:27.804Z,7.85
2023-02-15T10:10:03.436Z,8.73
2023-02-15T10:12:37.459Z,7.95
2023-02-15T10:15:12.522Z,9.45
2023-02-15T10:17:47.745Z,8.55
2023-02-15T10:20:21.425Z,8.73
2023-02-15T10:22:59.962Z,8.77
2023-02-15T10:25:33.334Z,9.13
2023-02-15T10:28:05.343Z,9.10
2023-02-15T10:30:39.270Z,9.65
2023-02-15T10:33:16.962Z,9.82
2023-02-15T10:35:48.270Z,9.98
2023-02-15T10:38:22.503Z,10.05
2023-02-15T10:41:00.658Z,9.75
2023-02-15T10:43:38.949Z,11.23
2023-02-15T10:46:12.363Z,9.90
2023-02-15T10:48:57.890Z,10.15
2023-02-15T10:51:32.425Z,11.52
2023-02-15T10:54:18.999Z,10.68
2023-02-15T10:56:52.286Z,10.93
2023-02-15T10:59:29.438Z,10.65
2023-02-15T11:02:04.111Z,12.07
2023-02-15T11:04:42.476Z,11.02
2023-02-15T11:07:14.505Z,11.32
2023-02-15T11:09:46.985Z,11.35
2023-02-15T11:12:17.156Z,11.60
2023-02-15T11:14:47.282Z,12.05
2023-02-15T11:17:17.151Z,11.32
2023-02-15T11:19:49.673Z,11.57
2023-02-15T11:22:18.246Z,12.82
2023-02-15T11:24:48.895Z,12.75
2023-02-15T11:27:21.085Z,12.85
2023-02-15T11:29:54.754Z,13.85
2023-02-15T11:32:25.720Z,13.23
2023-02-15T11:34:56.021Z,13.95
2023-02-15T11:37:27.315Z,14.32
2023-02-15T11:39:57.696Z,14.57
2023-02-15T11:42:27.942Z,15.15
2023-02-15T11:45:02.044Z,14.32
2023-02-15T11:47:32.130Z,14.32
2023-02-15T11:50:00.616Z,15.90
2023-02-15T11:52:28.912Z,14.70
2023-02-15T11:54:58.598Z,13.38
2023-02-15T11:57:29.033Z,15.13
2023-02-15T12:00:01.301Z,15.93
2023-02-15T12:02:38.200Z,15.27
2023-02-15T12:05:09.675Z,14.80
2023-02-15T12:07:39.185Z,15.50
2023-02-15T12:10:19.028Z,15.73
2023-02-15T12:12:47.305Z,14.20
2023-02-15T12:15:16.149Z,14.73
2023-02-15T12:17:55.640Z,14.88
2023-02-15T12:20:30.772Z,13.82
2023-02-15T12:23:03.152Z,15.63
2023-02-15T12:25:38.159Z,15.60
2023-02-15T12:28:07.160Z,15.00
2023-02-15T12:30:37.919Z,16.30
2023-02-15T12:33:15.637Z,15.82
2023-02-15T12:35:50.191Z,15.05
2023-02-15T12:38:25.761Z,15.32
2023-02-15T12:41:01.706Z,16.75
2023-02-15T12:43:32.944Z,16.08
2023-02-15T12:46:22.501Z,16.48
2023-02-15T12:49:08.630Z,16.35
2023-02-15T12:51:47.043Z,16.65
2023-02-15T12:54:23.531Z,17.20
2023-02-15T12:56:53.634Z,17.25
2023-02-15T12:59:23.760Z,18.20
2023-02-15T13:01:54.598Z,17.67
2023-02-15T13:04:25.405Z,18.65
2023-02-15T13:06:55.018Z,20.42
2023-02-15T13:09:30.902Z,18.35
2023-02-15T13:12:11.454Z,20.00
2023-02-15T13:14:39.781Z,18.65
2023-02-15T13:17:08.974Z,20.00
2023-02-15T13:19:39.703Z,18.02
2023-02-15T13:22:10.633Z,18.58
2023-02-15T13:24:40.614Z,17.73
2023-02-15T13:27:15.960Z,19.13
2023-02-15T13:29:46.577Z,18.73
2023-02-15T13:32:18.000Z,18.05
2023-02-15T13:34:46.325Z,18.30
2023-02-15T13:37:17.932Z,18.52
2023-02-15T13:39:49.987Z,18.42
2023-02-15T13:42:24.098Z,23.70
2023-02-15T13:45:10.525Z,19.10
2023-02-15T13:47:46.107Z,18.38
2023-02-15T13:50:23.100Z,18.63
2023-02-15T13:52:55.056Z,16.73
2023-02-15T13:55:30.063Z,17.45
2023-02-15T13:58:09.289Z,18.42
2023-02-15T14:00:43.253Z,17.17
2023-02-15T14:03:32.597Z,18.38
2023-02-15T14:06:17.118Z,18.15
2023-02-15T14:08:55.383Z,16.30
2023-02-15T14:11:25.754Z,18.20
2023-02-15T14:14:01.296Z,20.33
2023-02-15T14:16:36.222Z,18.88
2023-02-15T14:19:08.831Z,19.40
2023-02-15T14:21:41.471Z,20.33
2023-02-15T14:24:17.700Z,26.52
2023-02-15T14:26:50.090Z,21.83
2023-02-15T14:29:23.100Z,19.80
2023-02-15T14:31:53.807Z,24.65
2023-02-15T14:34:25.024Z,21.95
2023-02-15T14:36:54.321Z,19.52
2023-02-15T14:39:46.376Z,18.88
2023-02-15T14:42:18.212Z,18.60
2023-02-15T14:44:51.633Z,18.52
2023-02-15T14:47:22.030Z,20.65
2023-02-15T14:49:50.302Z,21.00
2023-02-15T14:52:18.572Z,20.02
2023-02-15T14:55:00.438Z,18.77
2023-02-15T14:57:34.636Z,18.08
2023-02-15T15:00:08.207Z,19.63
2023-02-15T15:02:44.607Z,20.40
2023-02-15T15:05:19.213Z,20.05
2023-02-15T15:07:49.095Z,19.25
2023-02-15T15:10:32.378Z,20.13
2023-02-15T15:13:01.282Z,19.38
2023-02-15T15:15:39.616Z,19.95
2023-02-15T15:18:09.731Z,20.92
2023-02-15T15:20:46.353Z,19.75
2023-02-15T15:23:33.316Z,19.55
2023-02-15T15:26:21.957Z,20.15
2023-02-15T15:28:57.510Z,20.25
2023-02-15T15:31:29.518Z,21.55
2023-02-15T15:34:12.994Z,19.85
2023-02-15T15:36:59.222Z,21.08
2023-02-15T15:39:46.116Z,20.35
2023-02-15T15:42:15.225Z,19.88
2023-02-15T15:45:05.094Z,20.98
2023-02-15T15:47:56.087Z,20.70
2023-02-15T15:50:30.391Z,21.60
2023-02-15T15:53:00.591Z,21.45
2023-02-15T15:55:30.476Z,20.52
2023-02-15T15:57:59.656Z,20.77
2023-02-15T16:00:37.364Z,20.13
2023-02-15T16:03:07.416Z,20.55
2023-02-15T16:05:39.481Z,21.50
2023-02-15T16:08:07.788Z,32.72
2023-02-15T16:10:38.657Z,36.17
2023-02-15T16:13:08.099Z,22.98
2023-02-15T16:15:38.220Z,22.25
2023-02-15T16:18:08.046Z,23.05
2023-02-15T16:20:37.753Z,21.65
2023-02-15T16:23:12.858Z,22.70
2023-02-15T16:25:45.267Z,20.13
2023-02-15T16:28:14.153Z,22.35
2023-02-15T16:30:43.565Z,23.40
2023-02-15T16:33:14.445Z,22.52
2023-02-15T16:35:43.956Z,22.65
2023-02-15T16:38:13.008Z,23.92
2023-02-15T16:40:43.926Z,24.08
2023-02-15T16:43:18.604Z,23.75
2023-02-15T16:45:50.958Z,23.38
2023-02-15T16:48:23.631Z,23.33
2023-02-15T16:50:55.502Z,22.45
2023-02-15T16:53:27.302Z,23.20
2023-02-15T16:55:57.925Z,22.50
2023-02-15T16:58:31.377Z,24.67
2023-02-15T17:01:01.280Z,23.25
2023-02-15T17:03:33.131Z,23.13
2023-02-15T17:06:02.559Z,24.00
2023-02-15T17:08:38.592Z,25.67
2023-02-15T17:11:18.722Z,24.63
2023-02-15T17:14:06.458Z,25.02
2023-02-15T17:16:36.044Z,26.20
2023-02-15T17:19:18.056Z,22.77
2023-02-15T17:21:50.683Z,24.13
2023-02-15T17:24:23.689Z,25.02
2023-02-15T17:26:53.025Z,25.50
2023-02-15T17:29:25.060Z,26.67
2023-02-15T17:31:54.199Z,23.20
2023-02-15T17:34:43.698Z,24.00
2023-02-15T17:37:14.929Z,24.23
2023-02-15T17:39:44.498Z,24.48
2023-02-15T17:42:12.791Z,23.80
2023-02-15T17:44:43.773Z,27.60
2023-02-15T17:47:16.615Z,25.58
2023-02-15T17:49:45.708Z,25.20
2023-02-15T17:52:15.925Z,25.65
2023-02-15T17:55:02.351Z,27.40
2023-02-15T17:57:31.057Z,25.40
2023-02-15T18:00:20.691Z,25.95
2023-02-15T18:03:07.290Z,27.77
2023-02-15T18:05:53.575Z,26.73
2023-02-15T18:08:43.532Z,25.73
2023-02-15T18:11:30.420Z,26.27
2023-02-15T18:14:01.550Z,27.33
2023-02-15T18:16:37.604Z,25.27
2023-02-15T18:19:12.232Z,27.23
2023-02-15T18:21:40.625Z,27.50
2023-02-15T18:24:15.726Z,25.73
2023-02-15T18:26:46.629Z,27.17
2023-02-15T18:29:18.092Z,26.75
2023-02-15T18:31:49.961Z,28.23
2023-02-15T18:34:26.819Z,26.90
2023-02-15T18:36:55.572Z,26.80
2023-02-15T18:39:32.907Z,27.95
2023-02-15T18:42:04.407Z,26.70
2023-02-15T18:44:41.054Z,27.70
2023-02-15T18:47:12.523Z,26.90
2023-02-15T18:49:44.496Z,27.83
2023-02-15T18:52:16.364Z,24.17
2023-02-15T18:54:46.435Z,24.13
2023-02-15T18:57:15.654Z,25.98
2023-02-15T18:59:46.243Z,26.60
2023-02-15T19:02:18.440Z,24.92
2023-02-15T19:04:47.711Z,24.58
2023-02-15T19:07:21.648Z,25.58
2023-02-15T19:09:54.825Z,24.85
2023-02-15T19:12:26.934Z,25.48
2023-02-15T19:14:57.150Z,26.45
2023-02-15T19:17:26.014Z,25.13
2023-02-15T19:19:55.969Z,25.70
2023-02-15T19:22:29.237Z,25.20
2023-02-15T19:25:03.913Z,28.35
2023-02-15T19:27:33.575Z,29.90
2023-02-15T19:30:04.412Z,25.13
2023-02-15T19:32:33.356Z,28.10
2023-02-15T19:35:03.130Z,26.45
2023-02-15T19:37:37.936Z,30.45
2023-02-15T19:40:09.797Z,22.77
2023-02-15T19:42:38.213Z,24.90
2023-02-15T19:45:17.436Z,22.58
2023-02-15T19:47:48.044Z,24.25
2023-02-15T19:50:21.411Z,23.17
2023-02-15T19:52:50.042Z,24.80
2023-02-15T19:55:22.906Z,23.88
2023-02-15T19:57:52.515Z,25.25
2023-02-15T20:00:26.188Z,24.40
2023-02-15T20:02:55.503Z,23.10
2023-02-15T20:05:24.462Z,20.88
2023-02-15T20:07:55.442Z,23.00
2023-02-15T20:10:26.163Z,23.15
2023-02-15T20:12:54.975Z,22.70
2023-02-15T20:15:24.449Z,24.75
2023-02-15T20:17:53.372Z,24.13
2023-02-15T20:20:22.542Z,23.65
2023-02-15T20:22:52.797Z,21.70
2023-02-15T20:25:22.714Z,22.15
2023-02-15T20:27:52.433Z,23.33
2023-02-15T20:30:22.184Z,23.92
2023-02-15T20:32:53.077Z,23.17
2023-02-15T20:35:22.530Z,22.98
2023-02-15T20:37:54.073Z,24.83
2023-02-15T20:40:24.086Z,24.17
2023-02-15T20:42:56.498Z,24.00
2023-02-15T20:45:25.409Z,23.27
2023-02-15T20:47:56.188Z,23.80
2023-02-15T20:50:25.758Z,24.77
2023-02-15T20:52:54.700Z,24.92
2023-02-15T20:55:24.515Z,23.98
2023-02-15T20:57:54.494Z,25.27
2023-02-15T21:00:24.863Z,26.10
2023-02-15T21:02:57.598Z,25.02
2023-02-15T21:05:27.084Z,25.45
2023-02-15T21:07:55.959Z,24.25
2023-02-15T21:10:25.898Z,24.58
2023-02-15T21:12:56.321Z,26.67
2023-02-15T21:15:30.091Z,31.17
2023-02-15T21:17:59.156Z,25.83
2023-02-15T21:20:28.203Z,24.55
2023-02-15T21:22:57.141Z,23.27
2023-02-15T21:25:27.792Z,27.25
2023-02-15T21:27:57.591Z,24.88
2023-02-15T21:30:26.491Z,24.65
2023-02-15T21:32:54.905Z,25.75
2023-02-15T21:35:23.684Z,24.88
2023-02-15T21:37:53.143Z,22.48
2023-02-15T21:40:23.610Z,24.33
2023-02-15T21:43:09.479Z,27.02
2023-02-15T21:45:57.310Z,23.77
2023-02-15T21:48:25.695Z,25.15
2023-02-15T21:51:12.253Z,24.98
2023-02-15T21:53:42.510Z,24.58
2023-02-15T21:56:12.081Z,25.00
2023-02-15T21:58:40.438Z,25.85
2023-02-15T22:01:18.694Z,26.38
2023-02-15T22:03:51.749Z,25.30
2023-02-15T22:06:24.385Z,24.08
2023-02-15T22:09:02.137Z,25.55
2023-02-15T22:11:32.011Z,23.75
2023-02-15T22:14:00.418Z,24.48
2023-02-15T22:16:31.972Z,26.38
2023-02-15T22:19:00.363Z,27.13
2023-02-15T22:21:31.323Z,25.48
2023-02-15T22:23:59.671Z,24.63
2023-02-15T22:26:28.331Z,24.10
2023-02-15T22:28:58.529Z,25.60
2023-02-15T22:31:26.978Z,23.90
2023-02-15T22:33:56.720Z,23.98
2023-02-15T22:36:25.827Z,24.73
2023-02-15T22:38:54.312Z,24.92
2023-02-15T22:41:24.149Z,23.50
2023-02-15T22:43:52.952Z,24.13
2023-02-15T22:46:22.444Z,24.73
2023-02-15T22:48:51.522Z,24.73
2023-02-15T22:51:22.058Z,24.10
2023-02-15T22:53:52.099Z,35.88
2023-02-15T22:56:22.273Z,26.92
2023-02-15T22:58:50.692Z,25.25
2023-02-15T23:01:23.703Z,24.67
2023-02-15T23:03:52.051Z,25.08
2023-02-15T23:06:21.722Z,24.45
2023-02-15T23:08:49.946Z,24.27
2023-02-15T23:11:18.528Z,25.20
2023-02-15T23:13:48.857Z,25.42
2023-02-15T23:16:17.839Z,25.08
2023-02-15T23:18:46.987Z,25.88
2023-02-15T23:21:19.798Z,25.02
2023-02-15T23:23:50.868Z,25.45
2023-02-15T23:26:20.295Z,25.05
2023-02-15T23:28:48.874Z,25.27
2023-02-15T23:31:19.511Z,25.10
2023-02-15T23:33:48.324Z,23.50
2023-02-15T23:36:26.030Z,25.35
2023-02-15T23:38:55.978Z,25.75
2023-02-15T23:41:24.639Z,25.15
2023-02-15T23:43:55.381Z,24.88
2023-02-15T23:46:25.280Z,25.67
2023-02-15T23:48:53.971Z,24.02
2023-02-15T23:51:23.971Z,24.50
2023-02-15T23:53:52.247Z,25.60
2023-02-15T23:56:21.833Z,25.42
2023-02-15T23:58:50.214Z,24.88
